Time;durP1;ratioP1;P1;durP2;ratioP2;P2;SDS_P1;SDS_P2;PMS_P1;PMS_P2;Temp;Humidity;BMP_temperature;BMP_pressure;BME280_temperature;BME280_humidity;BME280_pressure;Samples;Min_cycle;Max_cycle;Signal;HPM_P1;HPM_P2
2023/09/15 00:00:24;;;;;;;;;;;;;;;25.49;50.23;100798.94;7395936;19;1523;-42
2023/09/15 00:02:56;;;;;;;;;;;;;;;25.52;50.49;100800.44;7395848;19;1639;-44
2023/09/15 00:05:26;;;;;;;;;;;;;;;25.47;50.91;100787.44;7396967;19;1393;-42
2023/09/15 00:07:55;;;;;;;;;;;;;;;25.52;51.52;100784.19;7395518;19;1837;-42
2023/09/15 00:10:24;;;;;;;;;;;;;;;25.51;51.50;100786.06;7395625;19;1619;-43
2023/09/15 00:12:52;;;;;;;;;;;;;;;25.37;51.95;100784.94;7396321;19;1508;-44
2023/09/15 00:15:20;;;;;;;;;;;;;;;25.34;52.09;100790.69;7396546;19;1480;-42
2023/09/15 00:17:49;;;;;;;;;;;;;;;25.36;52.09;100794.06;7397477;19;1543;-44
2023/09/15 00:20:20;;;;;;;;;;;;;;;25.45;52.01;100797.59;7395518;19;1823;-44
2023/09/15 00:22:49;;;;;;;;;;;;;;;25.24;52.83;100800.06;7395132;19;1706;-42
2023/09/15 00:25:19;;;;;;;;;;;;;;;25.31;52.52;100803.78;7395646;19;1555;-44
2023/09/15 00:27:47;;;;;;;;;;;;;;;25.32;52.45;100798.16;7394984;19;1847;-44
2023/09/15 00:30:16;;;;;;;;;;;;;;;25.38;52.42;100810.16;7379239;19;1555;-42
2023/09/15 00:32:45;;;;;;;;;;;;;;;25.35;52.23;100791.56;7396398;19;1520;-44
2023/09/15 00:35:14;;;;;;;;;;;;;;;25.40;52.15;100794.56;7395387;19;1575;-44
2023/09/15 00:37:46;;;;;;;;;;;;;;;25.34;52.41;100806.94;7394827;19;1397;-44
2023/09/15 00:40:14;;;;;;;;;;;;;;;25.38;52.35;100802.03;7394352;19;1515;-44
2023/09/15 00:42:44;;;;;;;;;;;;;;;25.36;52.05;100798.66;7396116;19;1434;-44
2023/09/15 00:45:14;;;;;;;;;;;;;;;25.28;52.60;100807.66;7394991;19;1879;-44
2023/09/15 00:47:43;;;;;;;;;;;;;;;25.40;52.24;100813.50;7393265;19;1873;-42
2023/09/15 00:50:13;;;;;;;;;;;;;;;25.30;52.54;100805.59;7394631;19;1559;-42
2023/09/15 00:52:42;;;;;;;;;;;;;;;25.35;52.11;100808.66;7395163;19;1460;-44
2023/09/15 00:55:14;;;;;;;;;;;;;;;25.43;52.18;100815.03;7394985;19;1421;-44
2023/09/15 00:57:42;;;;;;;;;;;;;;;25.35;52.37;100811.34;7396108;19;1460;-42
2023/09/15 01:00:14;;;;;;;;;;;;;;;25.43;52.37;100815.03;7394012;19;1989;-44
2023/09/15 01:02:44;;;;;;;;;;;;;;;25.48;52.23;100823.47;7396148;19;1551;-42
2023/09/15 01:05:19;;;;;;;;;;;;;;;25.33;52.17;100817.97;7394150;19;1517;-44
2023/09/15 01:07:48;;;;;;;;;;;;;;;25.37;52.34;100809.31;7393614;19;1850;-42
2023/09/15 01:10:19;;;;;;;;;;;;;;;25.27;52.67;100808.69;7392640;19;1992;-44
2023/09/15 01:12:49;;;;;;;;;;;;;;;25.33;52.56;100826.94;7394919;19;1487;-42
2023/09/15 01:15:19;;;;;;;;;;;;;;;25.43;52.24;100824.00;7394878;19;1365;-44
2023/09/15 01:17:50;;;;;;;;;;;;;;;25.26;52.55;100831.34;7394980;19;1786;-44
2023/09/15 01:20:21;;;;;;;;;;;;;;;25.13;53.02;100837.28;7391589;19;1572;-44
2023/09/15 01:23:14;;;;;;;;;;;;;;;25.28;52.75;100844.72;7394056;19;1708;-44
2023/09/15 01:25:59;;;;;;;;;;;;;;;25.22;52.75;100840.84;7393295;19;1808;-42
2023/09/15 01:28:44;;;;;;;;;;;;;;;25.28;52.71;100834.72;7392791;19;1850;-42
2023/09/15 01:31:15;;;;;;;;;;;;;;;25.39;52.44;100839.75;7378853;19;1500;-44
2023/09/15 01:33:44;;;;;;;;;;;;;;;25.48;52.31;100840.53;7394171;19;1816;-42
2023/09/15 01:36:12;;;;;;;;;;;;;;;25.57;52.44;100855.75;7394665;19;1420;-44
2023/09/15 01:38:40;;;;;;;;;;;;;;;25.51;52.36;100851.03;7394257;19;1540;-42
2023/09/15 01:41:09;;;;;;;;;;;;;;;25.53;52.39;100845.44;7392721;19;1672;-44
2023/09/15 01:43:37;;;;;;;;;;;;;;;25.49;52.41;100842.25;7393630;19;1455;-42
2023/09/15 01:46:05;;;;;;;;;;;;;;;25.53;52.45;100849.00;7393691;19;1525;-42
2023/09/15 01:48:38;;;;;;;;;;;;;;;25.50;52.37;100843.91;7391407;19;1862;-42
2023/09/15 01:51:06;;;;;;;;;;;;;;;25.51;52.43;100866.44;7392887;19;1428;-42
2023/09/15 01:53:36;;;;;;;;;;;;;;;25.46;52.57;100841.75;7393531;19;1478;-44
2023/09/15 01:56:04;;;;;;;;;;;;;;;25.55;52.63;100846.13;7393920;19;1484;-42
2023/09/15 01:58:33;;;;;;;;;;;;;;;25.47;52.53;100848.88;7396928;19;1514;-44
2023/09/15 02:01:01;;;;;;;;;;;;;;;25.48;52.52;100853.25;7397470;19;1623;-42
2023/09/15 02:03:29;;;;;;;;;;;;;;;25.49;52.64;100857.66;7400715;19;1619;-44
2023/09/15 02:06:04;;;;;;;;;;;;;;;25.55;52.51;100856.94;7401751;19;1924;-44
2023/09/15 02:08:32;;;;;;;;;;;;;;;25.57;52.48;100850.31;7399293;19;1821;-44
2023/09/15 02:11:01;;;;;;;;;;;;;;;25.57;52.55;100854.91;7400133;19;1910;-42
2023/09/15 02:13:29;;;;;;;;;;;;;;;25.48;52.56;100855.97;7399746;19;1658;-42
2023/09/15 02:15:58;;;;;;;;;;;;;;;25.47;52.78;100855.13;7399488;19;1398;-44
2023/09/15 02:18:26;;;;;;;;;;;;;;;25.45;52.64;100856.31;7400032;19;1584;-44
2023/09/15 02:21:00;;;;;;;;;;;;;;;25.50;52.53;100856.63;7399922;19;1503;-44
2023/09/15 02:23:29;;;;;;;;;;;;;;;25.48;52.47;100861.38;7400522;19;1587;-44
2023/09/15 02:25:58;;;;;;;;;;;;;;;25.56;52.41;100861.31;7400486;19;1314;-44
2023/09/15 02:28:26;;;;;;;;;;;;;;;25.53;52.56;100859.81;7399028;19;1847;-44
2023/09/15 02:30:54;;;;;;;;;;;;;;;25.58;52.55;100860.13;7384875;19;1595;-42
2023/09/15 02:33:23;;;;;;;;;;;;;;;25.50;52.37;100864.75;7400342;19;1623;-44
2023/09/15 02:35:51;;;;;;;;;;;;;;;25.47;52.56;100863.25;7398674;19;1551;-42
2023/09/15 02:38:22;;;;;;;;;;;;;;;25.49;52.26;100863.91;7399116;19;1599;-44
2023/09/15 02:40:50;;;;;;;;;;;;;;;25.38;52.65;100862.41;7398734;19;1506;-44
2023/09/15 02:43:18;;;;;;;;;;;;;;;25.40;51.98;100857.66;7396528;19;1619;-44
2023/09/15 02:45:47;;;;;;;;;;;;;;;25.36;52.61;100853.63;7399636;19;1324;-44
2023/09/15 02:48:15;;;;;;;;;;;;;;;25.37;52.47;100865.31;7396765;19;1841;-44
2023/09/15 02:50:45;;;;;;;;;;;;;;;25.33;52.13;100866.69;7398094;19;1531;-42
2023/09/15 02:53:13;;;;;;;;;;;;;;;25.35;51.82;100868.19;7398783;19;1654;-44
2023/09/15 02:55:44;;;;;;;;;;;;;;;25.34;51.99;100865.66;7399002;19;1506;-42
2023/09/15 02:58:13;;;;;;;;;;;;;;;25.32;52.81;100876.66;7399673;19;1651;-44
2023/09/15 03:00:41;;;;;;;;;;;;;;;25.35;52.41;100876.31;7397355;19;1643;-44
2023/09/15 03:03:10;;;;;;;;;;;;;;;25.38;52.54;100884.06;7398236;19;1466;-42
2023/09/15 03:05:38;;;;;;;;;;;;;;;25.30;51.88;100869.72;7397915;19;1446;-44
2023/09/15 03:08:06;;;;;;;;;;;;;;;25.32;52.18;100903.72;7396088;19;1854;-44
2023/09/15 03:10:37;;;;;;;;;;;;;;;25.33;52.45;100872.94;7396830;19;1407;-44
2023/09/15 03:13:08;;;;;;;;;;;;;;;25.34;51.60;100881.91;7398285;19;1298;-44
2023/09/15 03:15:39;;;;;;;;;;;;;;;25.35;51.26;100911.50;7396330;19;1412;-42
2023/09/15 03:18:07;;;;;;;;;;;;;;;25.32;51.41;100882.06;7396901;19;1421;-42
2023/09/15 03:20:37;;;;;;;;;;;;;;;25.29;51.25;100889.72;7398362;19;1946;-42
2023/09/15 03:23:06;;;;;;;;;;;;;;;25.28;51.35;100905.09;7397423;19;1579;-42
2023/09/15 03:25:34;;;;;;;;;;;;;;;25.29;51.99;100890.56;7398506;19;1736;-42
2023/09/15 03:28:03;;;;;;;;;;;;;;;25.32;52.18;100901.00;7396481;19;1866;-44
2023/09/15 03:30:33;;;;;;;;;;;;;;;25.31;51.75;100890.38;7395300;19;1495;-44
2023/09/15 03:33:02;;;;;;;;;;;;;;;25.28;52.28;100910.50;7382913;19;1579;-42
2023/09/15 03:35:31;;;;;;;;;;;;;;;25.28;51.94;100907.78;7398641;19;1614;-42
2023/09/15 03:37:59;;;;;;;;;;;;;;;25.28;51.96;100898.84;7396974;19;1454;-42
2023/09/15 03:40:27;;;;;;;;;;;;;;;25.26;52.36;100906.28;7395199;19;1619;-44
2023/09/15 03:42:55;;;;;;;;;;;;;;;25.26;52.42;100907.13;7394997;19;1822;-42
2023/09/15 03:45:24;;;;;;;;;;;;;;;25.33;52.48;100924.38;7395144;19;1455;-44
2023/09/15 03:47:55;;;;;;;;;;;;;;;25.38;52.33;100919.25;7394669;19;1883;-42
2023/09/15 03:50:23;;;;;;;;;;;;;;;25.34;53.12;100925.22;7395985;19;1552;-43
2023/09/15 03:52:51;;;;;;;;;;;;;;;25.39;53.15;100904.72;7395032;19;1418;-43
2023/09/15 03:55:20;;;;;;;;;;;;;;;25.49;53.11;100928.06;7397820;19;1239;-43
2023/09/15 03:57:48;;;;;;;;;;;;;;;25.59;52.72;100920.56;7394078;19;1590;-43
2023/09/15 04:00:18;;;;;;;;;;;;;;;25.09;52.63;100857.59;7388958;19;1368;-43
2023/09/15 04:02:46;;;;;;;;;;;;;;;25.71;52.36;100943.53;7374113;19;1148;-42
2023/09/15 04:05:18;;;;;;;;;;;;;;;25.38;53.07;100924.69;7395266;19;1668;-42
2023/09/15 04:07:46;;;;;;;;;;;;;;;25.48;52.97;100942.59;7393510;19;1865;-42
2023/09/15 04:10:18;;;;;;;;;;;;;;;25.53;53.01;100940.22;7393715;19;1178;-42
2023/09/15 04:12:46;;;;;;;;;;;;;;;25.57;53.18;100950.53;7394076;19;1490;-43
2023/09/15 04:15:15;;;;;;;;;;;;;;;25.56;53.00;100954.22;7394926;19;1442;-44
2023/09/15 04:17:43;;;;;;;;;;;;;;;25.47;53.08;100951.75;7395397;19;1669;-43
2023/09/15 04:20:13;;;;;;;;;;;;;;;25.40;53.55;100974.06;7388611;19;1527;-41
2023/09/15 04:22:44;;;;;;;;;;;;;;;25.55;53.73;100959.84;7389183;19;2424;-44
2023/09/15 04:25:14;;;;;;;;;;;;;;;25.64;53.42;100964.19;7391488;19;1496;-44
2023/09/15 04:27:42;;;;;;;;;;;;;;;25.64;53.51;100969.63;7394681;19;1858;-42
2023/09/15 04:30:10;;;;;;;;;;;;;;;25.71;53.04;100957.06;7391695;19;1597;-43
2023/09/15 04:32:39;;;;;;;;;;;;;;;25.68;53.36;100972.81;7376170;19;1577;-43
2023/09/15 04:35:08;;;;;;;;;;;;;;;25.73;53.22;100965.03;7388334;19;1435;-44
2023/09/15 04:37:37;;;;;;;;;;;;;;;25.64;53.48;100968.78;7383026;19;1443;-44
2023/09/15 04:40:08;;;;;;;;;;;;;;;25.55;54.38;100963.41;7386853;19;1423;-42
2023/09/15 04:42:40;;;;;;;;;;;;;;;25.53;54.43;100978.13;7390027;19;1444;-44
2023/09/15 04:45:08;;;;;;;;;;;;;;;25.52;55.62;100962.88;7390474;19;1592;-44
2023/09/15 04:47:37;;;;;;;;;;;;;;;25.59;54.89;100972.03;7388451;19;1841;-44
2023/09/15 04:50:06;;;;;;;;;;;;;;;25.74;55.81;100964.84;7392485;19;1712;-44
2023/09/15 04:52:34;;;;;;;;;;;;;;;25.54;55.76;100980.66;7391875;19;2354;-43
2023/09/15 04:55:03;;;;;;;;;;;;;;;25.59;56.19;100988.28;7392699;19;1622;-44
2023/09/15 04:57:34;;;;;;;;;;;;;;;25.60;56.05;100962.84;7393429;19;1436;-43
2023/09/15 05:00:12;;;;;;;;;;;;;;;25.71;56.15;100976.03;7381249;19;2392;-43
2023/09/15 05:02:42;;;;;;;;;;;;;;;25.51;56.35;100972.88;7388891;19;1518;-42
2023/09/15 05:05:10;;;;;;;;;;;;;;;25.52;57.54;100993.50;7392610;19;1533;-42
2023/09/15 05:07:39;;;;;;;;;;;;;;;25.67;57.29;100972.00;7392529;19;1853;-44
2023/09/15 05:10:08;;;;;;;;;;;;;;;25.58;57.16;100973.88;7393029;19;2616;-44
2023/09/15 05:12:39;;;;;;;;;;;;;;;25.58;57.15;100971.16;7391638;19;1473;-44
2023/09/15 05:15:08;;;;;;;;;;;;;;;25.35;59.03;100989.19;7394245;19;1534;-45
2023/09/15 05:17:36;;;;;;;;;;;;;;;25.36;58.97;100999.81;7393278;19;1487;-44
2023/09/15 05:20:05;;;;;;;;;;;;;;;25.44;57.89;100990.00;7389179;19;1450;-44
2023/09/15 05:22:33;;;;;;;;;;;;;;;25.48;57.34;101005.72;7389233;19;1487;-42
2023/09/15 05:25:04;;;;;;;;;;;;;;;25.55;57.33;101011.31;7388577;19;1487;-42
2023/09/15 05:27:32;;;;;;;;;;;;;;;25.48;57.98;101002.16;7391463;19;1478;-42
2023/09/15 05:30:03;;;;;;;;;;;;;;;25.46;58.21;101013.16;7385672;19;1853;-42
2023/09/15 05:32:32;;;;;;;;;;;;;;;25.46;58.12;101020.44;7373175;19;1435;-41
2023/09/15 05:35:00;;;;;;;;;;;;;;;25.61;58.21;101007.91;7390853;19;1459;-42
2023/09/15 05:37:26;;;;;;;;;;;;;;;25.64;57.91;101006.69;7393254;19;1545;-41
2023/09/15 05:39:54;;;;;;;;;;;;;;;25.84;57.77;100996.28;7398454;19;1547;-42
2023/09/15 05:42:22;;;;;;;;;;;;;;;25.82;57.44;100998.34;7397265;19;1637;-42
2023/09/15 05:44:54;;;;;;;;;;;;;;;25.86;57.70;101010.50;7397300;19;1592;-41
2023/09/15 05:47:25;;;;;;;;;;;;;;;25.76;57.84;101016.97;7397556;19;1459;-41
2023/09/15 05:49:53;;;;;;;;;;;;;;;25.77;57.69;101026.81;7393094;19;1846;-42
2023/09/15 05:52:21;;;;;;;;;;;;;;;25.74;57.38;101012.75;7397341;19;1531;-42
2023/09/15 05:54:50;;;;;;;;;;;;;;;25.64;57.96;101017.53;7395146;19;1526;-42
2023/09/15 05:57:21;;;;;;;;;;;;;;;25.65;57.52;101025.50;7396640;19;1554;-42
2023/09/15 05:59:50;;;;;;;;;;;;;;;25.78;57.18;101024.94;7398149;19;1677;-42
2023/09/15 06:02:20;;;;;;;;;;;;;;;25.78;56.88;101025.78;7395747;19;1899;-42
2023/09/15 06:04:51;;;;;;;;;;;;;;;25.69;56.30;101023.28;7398762;19;1447;-47
2023/09/15 06:07:18;;;;;;;;;;;;;;;25.58;56.70;101030.72;7402062;19;1768;-42
2023/09/15 06:09:47;;;;;;;;;;;;;;;25.60;56.36;101030.56;7399506;19;1870;-42
2023/09/15 06:12:15;;;;;;;;;;;;;;;25.69;56.49;101029.53;7400711;19;1696;-42
2023/09/15 06:14:44;;;;;;;;;;;;;;;25.71;56.55;101034.78;7401354;19;1835;-42
2023/09/15 06:17:12;;;;;;;;;;;;;;;25.71;56.74;101032.91;7401688;19;1773;-42
2023/09/15 06:19:40;;;;;;;;;;;;;;;25.71;57.07;101032.91;7401014;19;1578;-41
2023/09/15 06:22:12;;;;;;;;;;;;;;;25.73;57.10;101027.34;7401882;19;1757;-41
2023/09/15 06:24:40;;;;;;;;;;;;;;;25.74;57.32;101034.41;7400866;19;1555;-41
2023/09/15 06:27:08;;;;;;;;;;;;;;;25.71;57.37;101041.03;7400092;19;1376;-42
2023/09/15 06:29:37;;;;;;;;;;;;;;;25.68;57.10;101030.53;7397676;19;1853;-41
2023/09/15 06:32:05;;;;;;;;;;;;;;;25.66;57.36;101038.00;7386371;19;1740;-42
2023/09/15 06:34:33;;;;;;;;;;;;;;;25.60;57.94;101044.97;7402099;19;1639;-42
2023/09/15 06:37:02;;;;;;;;;;;;;;;25.61;57.52;101043.09;7399960;19;1789;-42
2023/09/15 06:39:34;;;;;;;;;;;;;;;25.29;58.07;101052.97;7395975;19;1752;-45
2023/09/15 06:42:04;;;;;;;;;;;;;;;25.22;58.08;101046.53;7398420;19;1733;-44
2023/09/15 06:44:32;;;;;;;;;;;;;;;25.34;57.85;101049.72;7398921;19;1620;-44
2023/09/15 06:47:00;;;;;;;;;;;;;;;25.33;57.52;101034.53;7398576;19;1773;-44
2023/09/15 06:49:30;;;;;;;;;;;;;;;25.26;58.29;101047.03;7398737;19;1856;-44
2023/09/15 06:51:58;;;;;;;;;;;;;;;25.50;58.08;101043.44;7399950;19;1731;-45
2023/09/15 06:54:27;;;;;;;;;;;;;;;25.27;58.26;101037.88;7398147;19;1755;-45
2023/09/15 06:56:57;;;;;;;;;;;;;;;25.27;57.86;101044.16;7399422;19;1503;-45
2023/09/15 06:59:26;;;;;;;;;;;;;;;25.32;57.54;101047.19;7399431;19;1791;-45
2023/09/15 07:01:54;;;;;;;;;;;;;;;25.29;57.85;101061.09;7399644;19;1812;-45
2023/09/15 07:04:22;;;;;;;;;;;;;;;25.25;57.90;101059.75;7399305;19;1493;-44
2023/09/15 07:06:50;;;;;;;;;;;;;;;25.27;58.01;101060.41;7398072;19;1530;-44
2023/09/15 07:09:19;;;;;;;;;;;;;;;25.24;58.12;101054.47;7397460;19;1850;-44
2023/09/15 07:11:47;;;;;;;;;;;;;;;25.25;58.14;101061.56;7397173;19;1503;-43
2023/09/15 07:14:18;;;;;;;;;;;;;;;25.28;57.79;101055.84;7394824;19;1490;-42
2023/09/15 07:16:47;;;;;;;;;;;;;;;25.44;57.44;101071.22;7398185;19;1825;-42
2023/09/15 07:19:15;;;;;;;;;;;;;;;25.47;57.69;101049.22;7398797;19;1735;-42
2023/09/15 07:21:44;;;;;;;;;;;;;;;25.56;57.37;101053.59;7399085;19;1546;-42
2023/09/15 07:24:13;;;;;;;;;;;;;;;25.48;57.28;101061.72;7397593;19;1485;-42
2023/09/15 07:26:41;;;;;;;;;;;;;;;25.48;57.64;101056.31;7398580;19;1566;-41
2023/09/15 07:29:10;;;;;;;;;;;;;;;25.37;58.34;101058.38;7398385;19;1837;-42
2023/09/15 07:31:42;;;;;;;;;;;;;;;25.41;58.55;101045.34;7397972;19;1732;-42
2023/09/15 07:34:10;;;;;;;;;;;;;;;25.47;59.01;101068.19;7382662;19;1910;-41
2023/09/15 07:36:39;;;;;;;;;;;;;;;25.42;59.25;101057.00;7397709;19;1459;-41
2023/09/15 07:39:07;;;;;;;;;;;;;;;25.47;58.56;101066.31;7395381;19;1724;-41
2023/09/15 07:41:37;;;;;;;;;;;;;;;25.48;58.48;101069.84;7399565;19;1748;-41
2023/09/15 07:44:06;;;;;;;;;;;;;;;25.48;58.46;101072.56;7399373;19;1839;-43
2023/09/15 07:46:34;;;;;;;;;;;;;;;25.37;58.89;101061.06;7397333;19;1818;-42
2023/09/15 07:49:05;;;;;;;;;;;;;;;25.38;59.07;101078.16;7394704;19;1897;-42
2023/09/15 07:51:34;;;;;;;;;;;;;;;25.52;58.60;101060.38;7395534;19;1501;-42
2023/09/15 07:54:02;;;;;;;;;;;;;;;25.37;58.99;101074.59;7395530;19;1429;-42
2023/09/15 07:56:31;;;;;;;;;;;;;;;25.34;59.38;101077.66;7389856;19;1380;-43
2023/09/15 07:58:59;;;;;;;;;;;;;;;25.28;59.34;101063.94;7396564;19;1137;-42
2023/09/15 08:01:27;;;;;;;;;;;;;;;25.39;58.93;101086.13;7394470;19;1507;-42
2023/09/15 08:03:56;;;;;;;;;;;;;;;25.35;58.90;101068.53;7397362;19;1490;-41
2023/09/15 08:06:28;;;;;;;;;;;;;;;25.38;58.74;101073.56;7395044;19;1455;-43
2023/09/15 08:08:56;;;;;;;;;;;;;;;25.37;57.27;101071.06;7394353;19;1854;-42
2023/09/15 08:11:24;;;;;;;;;;;;;;;25.32;58.84;101068.84;7394552;19;1455;-43
2023/09/15 08:13:53;;;;;;;;;;;;;;;25.48;58.39;101072.56;7397216;19;1896;-43
2023/09/15 08:16:21;;;;;;;;;;;;;;;25.41;58.73;101072.41;7396998;19;1502;-42
2023/09/15 08:18:49;;;;;;;;;;;;;;;25.42;59.07;101078.66;7397131;19;1728;-42
2023/09/15 08:21:18;;;;;;;;;;;;;;;25.33;59.31;101057.03;7397336;19;1698;-43
2023/09/15 08:23:48;;;;;;;;;;;;;;;25.36;59.14;101062.06;7396237;19;1781;-41
2023/09/15 08:26:17;;;;;;;;;;;;;;;25.38;58.89;101057.34;7395951;19;1535;-43
2023/09/15 08:28:46;;;;;;;;;;;;;;;25.46;59.34;101063.78;7395141;19;1312;-42
2023/09/15 08:31:14;;;;;;;;;;;;;;;25.36;59.08;101059.38;7395789;19;1513;-43
2023/09/15 08:33:42;;;;;;;;;;;;;;;25.32;58.96;101078.84;7375324;19;1481;-42
2023/09/15 08:36:11;;;;;;;;;;;;;;;25.38;58.74;101068.16;7395726;19;1643;-42
2023/09/15 08:38:39;;;;;;;;;;;;;;;25.33;58.33;101062.44;7393074;19;2492;-41
2023/09/15 08:41:14;;;;;;;;;;;;;;;25.23;58.87;101061.78;7394570;19;1417;-42
2023/09/15 08:43:43;;;;;;;;;;;;;;;25.31;58.34;101056.34;7394894;19;2173;-42
2023/09/15 08:46:14;;;;;;;;;;;;;;;25.29;57.77;101052.97;7394307;19;1574;-41
2023/09/15 08:48:46;;;;;;;;;;;;;;;25.36;57.27;101048.53;7393278;19;1586;-42
2023/09/15 08:51:15;;;;;;;;;;;;;;;25.29;57.26;101063.78;7393938;19;1943;-41
2023/09/15 08:53:44;;;;;;;;;;;;;;;25.35;57.04;101049.56;7395769;19;1453;-41
2023/09/15 08:56:15;;;;;;;;;;;;;;;25.48;57.09;101040.91;7394858;19;1550;-41
2023/09/15 08:58:43;;;;;;;;;;;;;;;25.38;57.22;101038.38;7396770;19;1849;-42
2023/09/15 09:01:12;;;;;;;;;;;;;;;25.57;57.30;101044.47;7395224;19;1413;-41
2023/09/15 09:03:42;;;;;;;;;;;;;;;25.68;56.24;101032.41;7395675;19;1732;-41
2023/09/15 09:06:12;;;;;;;;;;;;;;;25.49;57.05;101030.94;7396609;19;1479;-41
2023/09/15 09:08:42;;;;;;;;;;;;;;;25.60;56.75;101030.56;7408384;19;2085;-41
2023/09/15 09:11:11;;;;;;;;;;;;;;;25.89;55.81;101021.84;7408092;19;1962;-42
2023/09/15 09:13:42;;;;;;;;;;;;;;;25.97;57.70;101029.97;7407438;19;1657;-41
2023/09/15 09:16:11;;;;;;;;;;;;;;;26.06;57.59;101029.94;7407981;19;1640;-42
2023/09/15 09:18:40;;;;;;;;;;;;;;;25.71;55.05;101030.22;7400988;19;1823;-43
2023/09/15 09:21:08;;;;;;;;;;;;;;;25.75;55.46;101017.16;7406221;19;1749;-41
2023/09/15 09:23:37;;;;;;;;;;;;;;;25.77;55.66;101034.09;7407191;19;1656;-42
2023/09/15 09:26:12;;;;;;;;;;;;;;;25.83;56.28;101017.13;7407793;19;1789;-42
2023/09/15 09:28:43;;;;;;;;;;;;;;;25.75;56.83;101014.47;7409575;19;1486;-43
2023/09/15 09:31:11;;;;;;;;;;;;;;;25.74;56.76;101018.16;7404617;19;1863;-43
2023/09/15 09:33:40;;;;;;;;;;;;;;;25.79;56.46;101016.63;7391738;19;1476;-42
2023/09/15 09:36:12;;;;;;;;;;;;;;;25.91;56.01;101025.25;7408806;19;1594;-42
2023/09/15 09:38:40;;;;;;;;;;;;;;;26.01;54.74;101016.94;7407190;19;1850;-43
2023/09/15 09:41:08;;;;;;;;;;;;;;;26.11;54.41;101024.84;7407022;19;1677;-42
2023/09/15 09:43:37;;;;;;;;;;;;;;;25.94;55.68;101011.38;7405402;19;1713;-42
2023/09/15 09:46:09;;;;;;;;;;;;;;;25.90;55.01;101001.88;7405871;19;1570;-43
2023/09/15 09:48:37;;;;;;;;;;;;;;;25.91;55.03;101002.75;7406173;19;1776;-42
2023/09/15 09:51:06;;;;;;;;;;;;;;;25.99;55.14;101010.84;7407164;19;1922;-42
2023/09/15 09:53:36;;;;;;;;;;;;;;;26.01;54.87;101008.78;7408658;19;1723;-43
2023/09/15 09:56:06;;;;;;;;;;;;;;;26.01;54.57;101002.53;7408368;19;1815;-43
2023/09/15 09:58:35;;;;;;;;;;;;;;;26.02;54.73;101009.63;7408371;19;1608;-43
2023/09/15 10:01:04;;;;;;;;;;;;;;;26.13;54.14;100990.28;7407656;19;1863;-42
2023/09/15 10:03:35;;;;;;;;;;;;;;;25.76;53.97;101003.44;7406943;19;1585;-43
2023/09/15 10:06:04;;;;;;;;;;;;;;;25.20;54.35;101000.66;7408065;19;1875;-43
2023/09/15 10:08:32;;;;;;;;;;;;;;;25.01;54.29;101003.72;7408087;19;1480;-42
2023/09/15 10:11:01;;;;;;;;;;;;;;;24.85;54.23;101006.41;7405628;19;1925;-43
2023/09/15 10:13:31;;;;;;;;;;;;;;;24.73;55.36;101017.59;7407860;19;1616;-42
2023/09/15 10:15:59;;;;;;;;;;;;;;;25.06;55.67;101001.34;7407462;19;1757;-42
2023/09/15 10:18:28;;;;;;;;;;;;;;;25.02;55.12;100998.13;7403715;19;1432;-43
2023/09/15 10:20:59;;;;;;;;;;;;;;;24.98;56.25;100990.53;7398019;19;1653;-43
2023/09/15 10:23:27;;;;;;;;;;;;;;;24.87;55.94;100998.97;7399036;19;1561;-42
2023/09/15 10:25:56;;;;;;;;;;;;;;;24.80;55.27;100974.47;7400792;19;1551;-42
2023/09/15 10:28:25;;;;;;;;;;;;;;;24.74;56.32;100975.97;7402050;19;1550;-43
2023/09/15 10:30:56;;;;;;;;;;;;;;;24.76;56.55;100987.47;7398978;19;1863;-42
2023/09/15 10:33:24;;;;;;;;;;;;;;;24.75;56.80;100979.53;7383900;19;1534;-42
2023/09/15 10:35:52;;;;;;;;;;;;;;;24.74;57.23;100977.84;7399473;19;1907;-43
2023/09/15 10:38:31;;;;;;;;;;;;;;;24.67;57.57;100976.81;7396317;19;1597;-42
2023/09/15 10:41:03;;;;;;;;;;;;;;;24.66;58.17;100967.88;7398356;19;1543;-43
2023/09/15 10:43:31;;;;;;;;;;;;;;;24.61;58.18;100976.50;7397099;19;1804;-42
2023/09/15 10:46:02;;;;;;;;;;;;;;;24.59;57.40;100981.22;7398987;19;1507;-42
2023/09/15 10:48:39;;;;;;;;;;;;;;;24.63;58.01;100981.75;7390920;19;1509;-42
2023/09/15 10:51:07;;;;;;;;;;;;;;;24.73;57.10;100965.34;7395723;19;1847;-42
2023/09/15 10:53:46;;;;;;;;;;;;;;;24.71;57.92;100960.13;7396807;19;1760;-43
2023/09/15 10:56:16;;;;;;;;;;;;;;;24.70;57.92;100955.69;7399043;19;1678;-42
2023/09/15 10:58:46;;;;;;;;;;;;;;;24.64;58.20;100971.78;7398598;19;1744;-42
2023/09/15 11:01:15;;;;;;;;;;;;;;;24.45;58.25;100960.19;7396554;19;2021;-41
2023/09/15 11:03:44;;;;;;;;;;;;;;;24.31;58.32;100956.31;7397289;19;1476;-42
2023/09/15 11:06:14;;;;;;;;;;;;;;;24.25;58.72;100961.53;7394352;19;1490;-43
2023/09/15 11:08:42;;;;;;;;;;;;;;;24.44;57.92;100950.41;7398302;19;1410;-42
2023/09/15 11:11:13;;;;;;;;;;;;;;;24.52;57.69;100945.03;7395578;19;1972;-43
2023/09/15 11:13:42;;;;;;;;;;;;;;;24.50;58.05;100952.47;7398080;19;1741;-43
2023/09/15 11:16:11;;;;;;;;;;;;;;;24.53;57.76;100940.47;7397504;19;1794;-42
2023/09/15 11:18:39;;;;;;;;;;;;;;;24.59;57.72;100937.97;7395913;19;1820;-43
2023/09/15 11:21:08;;;;;;;;;;;;;;;24.50;58.09;100946.22;7396141;19;1644;-42
2023/09/15 11:23:37;;;;;;;;;;;;;;;24.54;57.96;100940.31;7394624;19;1558;-42
2023/09/15 11:26:06;;;;;;;;;;;;;;;24.57;57.73;100931.88;7394533;19;1615;-43
2023/09/15 11:28:37;;;;;;;;;;;;;;;24.46;58.48;100942.16;7395090;19;1483;-43
2023/09/15 11:31:07;;;;;;;;;;;;;;;24.55;58.81;100923.09;7392316;19;1858;-43
2023/09/15 11:33:36;;;;;;;;;;;;;;;24.52;58.74;100928.00;7397442;19;1550;-42
2023/09/15 11:36:05;;;;;;;;;;;;;;;24.48;58.93;100929.31;7399194;19;1820;-43
2023/09/15 11:38:34;;;;;;;;;;;;;;;24.73;58.02;100920.22;7396214;19;1938;-43
2023/09/15 11:41:04;;;;;;;;;;;;;;;24.65;58.27;100922.06;7397048;19;1865;-43
2023/09/15 11:43:33;;;;;;;;;;;;;;;24.53;58.84;100916.16;7396534;19;1828;-43
2023/09/15 11:46:07;;;;;;;;;;;;;;;24.53;59.04;100932.38;7393470;19;1935;-43
2023/09/15 11:48:38;;;;;;;;;;;;;;;24.48;58.50;100913.94;7396095;19;1708;-43
2023/09/15 11:51:09;;;;;;;;;;;;;;;24.56;58.19;100922.06;7392481;19;2091;-43
2023/09/15 11:53:38;;;;;;;;;;;;;;;24.44;58.36;100917.97;7394026;19;1375;-44
2023/09/15 11:56:07;;;;;;;;;;;;;;;24.71;57.37;100948.44;7395952;19;1595;-46
2023/09/15 11:58:36;;;;;;;;;;;;;;;24.71;57.33;100903.31;7396741;19;1402;-42
2023/09/15 12:01:07;;;;;;;;;;;;;;;24.60;57.57;100912.59;7395838;19;1831;-43
2023/09/15 12:03:35;;;;;;;;;;;;;;;24.44;58.29;100917.97;7394710;19;1599;-36
2023/09/15 12:06:04;;;;;;;;;;;;;;;24.46;58.18;100917.81;7397097;19;1386;-36
2023/09/15 12:08:32;;;;;;;;;;;;;;;24.33;58.50;100908.34;7394038;19;1961;-36
2023/09/15 12:11:01;;;;;;;;;;;;;;;24.54;57.82;100897.06;7392581;19;1869;-36
2023/09/15 12:13:36;;;;;;;;;;;;;;;24.51;58.04;100907.38;7395797;19;1499;-39
2023/09/15 12:16:07;;;;;;;;;;;;;;;24.42;58.57;100907.31;7395635;19;1554;-36
2023/09/15 12:18:37;;;;;;;;;;;;;;;24.48;57.87;100903.13;7392945;19;1476;-36
2023/09/15 12:21:11;;;;;;;;;;;;;;;24.45;57.58;100898.03;7392620;19;1691;-36
2023/09/15 12:23:40;;;;;;;;;;;;;;;24.45;57.49;100892.63;7394119;19;1593;-36
2023/09/15 12:26:08;;;;;;;;;;;;;;;24.30;57.95;100897.03;7392750;19;1593;-36
2023/09/15 12:28:37;;;;;;;;;;;;;;;24.52;57.14;100893.69;7395140;19;1593;-36
2023/09/15 12:31:08;;;;;;;;;;;;;;;24.64;56.61;100886.06;7394899;19;1863;-36
2023/09/15 12:33:38;;;;;;;;;;;;;;;24.54;57.32;100880.00;7394416;19;1533;-36
2023/09/15 12:36:07;;;;;;;;;;;;;;;24.44;57.84;100890.13;7396546;19;1502;-36
2023/09/15 12:38:35;;;;;;;;;;;;;;;24.32;57.67;100889.59;7394071;19;1643;-36
2023/09/15 12:41:03;;;;;;;;;;;;;;;24.48;57.59;100878.78;7389594;19;1778;-36
2023/09/15 12:43:31;;;;;;;;;;;;;;;24.40;57.44;100887.72;7389535;19;1481;-36
2023/09/15 12:46:00;;;;;;;;;;;;;;;24.51;57.07;100864.97;7396113;19;1523;-37
2023/09/15 12:48:31;;;;;;;;;;;;;;;24.59;56.58;100867.66;7390218;19;1544;-36
2023/09/15 12:50:59;;;;;;;;;;;;;;;24.57;56.68;100864.28;7392768;19;1851;-37
2023/09/15 12:53:28;;;;;;;;;;;;;;;24.59;56.72;100846.03;7391896;19;1405;-37
2023/09/15 12:55:58;;;;;;;;;;;;;;;24.61;56.38;100852.13;7395171;19;1387;-37
2023/09/15 12:58:26;;;;;;;;;;;;;;;24.69;56.21;100861.22;7381905;19;1758;-37